Time;durP1;ratioP1;P1;durP2;ratioP2;P2;SDS_P1;SDS_P2;PMS_P1;PMS_P2;Temp;Humidity;BMP_temperature;BMP_pressure;BME280_temperature;BME280_humidity;BME280_pressure;Samples;Min_cycle;Max_cycle;Signal;HPM_P1;HPM_P2
2021/06/21 06:46:03;;;;;;;5.63;2.20;;;;;;;;;;5039611;23;20045;-40
2021/06/21 06:48:30;;;;;;;6.22;2.17;;;;;;;;;;5006885;28;20100;-41
2021/06/21 06:51:00;;;;;;;7.90;2.30;;;;;;;;;;5007461;28;20116;-40
2021/06/21 06:53:35;;;;;;;5.65;1.98;;;;;;;;;;5023264;28;20493;-40
2021/06/21 06:58:46;;;;;;;6.00;1.75;;;;;;;;;;5018691;28;20140;-41
2021/06/21 07:01:12;;;;;;;7.20;2.83;;;;;;;;;;5012674;28;20097;-41
2021/06/21 07:03:41;;;;;;;9.45;2.22;;;;;;;;;;5010675;28;20125;-44
2021/06/21 07:06:07;;;;;;;10.13;2.10;;;;;;;;;;5006513;28;20473;-41
2021/06/21 07:08:33;;;;;;;7.00;1.98;;;;;;;;;;5022639;28;20037;-44
2021/06/21 07:11:00;;;;;;;5.70;2.20;;;;;;;;;;5029975;28;20025;-41
2021/06/21 07:13:26;;;;;;;7.23;2.83;;;;;;;;;;5011997;28;20465;-41
2021/06/21 07:15:52;;;;;;;4.35;1.85;;;;;;;;;;5026925;28;20248;-41
2021/06/21 07:18:18;;;;;;;10.52;2.63;;;;;;;;;;5027498;28;20072;-43
2021/06/21 07:20:44;;;;;;;7.57;2.22;;;;;;;;;;5027106;28;20052;-42
2021/06/21 07:23:13;;;;;;;9.00;2.53;;;;;;;;;;5024356;28;20025;-40
2021/06/21 07:25:40;;;;;;;6.95;2.15;;;;;;;;;;5025343;28;20021;-40
2021/06/21 07:28:06;;;;;;;7.07;2.38;;;;;;;;;;5021169;28;20041;-44
2021/06/21 07:30:32;;;;;;;5.53;1.70;;;;;;;;;;5009012;28;20464;-42
2021/06/21 07:33:00;;;;;;;6.18;2.13;;;;;;;;;;5025597;28;20272;-41
2021/06/21 07:35:27;;;;;;;10.73;2.30;;;;;;;;;;5028433;28;20067;-40
2021/06/21 07:37:53;;;;;;;6.00;2.05;;;;;;;;;;5028941;28;20025;-41
2021/06/21 07:40:19;;;;;;;5.05;1.60;;;;;;;;;;5029522;28;20022;-41
2021/06/21 07:42:45;;;;;;;3.67;1.60;;;;;;;;;;5023997;28;20033;-43
2021/06/21 07:45:11;;;;;;;6.22;2.03;;;;;;;;;;5027479;28;20498;-43
2021/06/21 07:47:37;;;;;;;5.32;2.20;;;;;;;;;;5023614;28;20498;-42
2021/06/21 07:50:04;;;;;;;5.45;1.77;;;;;;;;;;5022654;28;20033;-42
2021/06/21 07:52:30;;;;;;;4.45;1.70;;;;;;;;;;5024634;28;20087;-41
2021/06/21 07:54:59;;;;;;;4.63;1.70;;;;;;;;;;5008719;28;20465;-39
2021/06/21 07:57:28;;;;;;;6.18;1.95;;;;;;;;;;5026245;28;20056;-40
2021/06/21 07:59:54;;;;;;;4.97;1.90;;;;;;;;;;5023836;28;21026;-42
2021/06/21 08:02:20;;;;;;;7.97;2.13;;;;;;;;;;5007758;28;20034;-41
2021/06/21 08:04:47;;;;;;;6.50;1.83;;;;;;;;;;5009175;28;20469;-40
2021/06/21 08:07:14;;;;;;;4.22;1.52;;;;;;;;;;5009591;28;20064;-41
2021/06/21 08:09:40;;;;;;;3.25;1.60;;;;;;;;;;5023655;28;20064;-41
2021/06/21 08:12:06;;;;;;;4.68;1.60;;;;;;;;;;5025645;28;20123;-41
2021/06/21 08:14:37;;;;;;;3.50;1.80;;;;;;;;;;5002753;28;20133;-41
2021/06/21 08:17:06;;;;;;;5.95;1.90;;;;;;;;;;5003488;28;20052;-41
2021/06/21 08:19:35;;;;;;;3.92;1.42;;;;;;;;;;5007875;28;20073;-42
2021/06/21 08:22:01;;;;;;;4.15;1.60;;;;;;;;;;5000209;28;20025;-41
2021/06/21 08:24:27;;;;;;;6.63;1.80;;;;;;;;;;5003414;28;20060;-43
2021/06/21 08:26:59;;;;;;;4.10;1.60;;;;;;;;;;5028577;28;20292;-42
2021/06/21 08:29:25;;;;;;;3.75;1.45;;;;;;;;;;5008492;28;20028;-43
2021/06/21 08:31:51;;;;;;;4.80;1.70;;;;;;;;;;5028129;28;20036;-42
2021/06/21 08:34:17;;;;;;;4.45;1.75;;;;;;;;;;5020653;28;20087;-42
2021/06/21 08:36:43;;;;;;;3.20;1.50;;;;;;;;;;5028400;28;20105;-42
2021/06/21 08:39:10;;;;;;;4.00;1.35;;;;;;;;;;5012731;28;20028;-40
2021/06/21 08:41:37;;;;;;;3.88;1.30;;;;;;;;;;5024560;28;20812;-42
2021/06/21 08:44:03;;;;;;;3.75;1.55;;;;;;;;;;5004599;28;20049;-42
2021/06/21 08:46:29;;;;;;;3.87;2.00;;;;;;;;;;5022349;28;20060;-42
2021/06/21 08:48:56;;;;;;;4.38;1.35;;;;;;;;;;5022871;28;20414;-42
2021/06/21 08:51:22;;;;;;;4.60;1.70;;;;;;;;;;5024981;28;20430;-41
2021/06/21 08:53:48;;;;;;;4.72;1.50;;;;;;;;;;5000206;28;20738;-42
2021/06/21 08:56:14;;;;;;;3.65;1.42;;;;;;;;;;5005165;28;20095;-45
2021/06/21 08:58:41;;;;;;;3.63;1.57;;;;;;;;;;5003846;28;20026;-43
2021/06/21 09:01:07;;;;;;;2.35;1.38;;;;;;;;;;5019248;28;20037;-43
2021/06/21 09:03:34;;;;;;;3.67;1.55;;;;;;;;;;5027022;28;20036;-43
2021/06/21 09:06:01;;;;;;;2.92;1.50;;;;;;;;;;5025744;28;20044;-40
2021/06/21 09:08:27;;;;;;;3.55;1.55;;;;;;;;;;5013181;28;20478;-41
2021/06/21 09:10:53;;;;;;;4.00;1.67;;;;;;;;;;5028096;28;20025;-41
2021/06/21 09:13:20;;;;;;;2.23;1.30;;;;;;;;;;5030952;28;20036;-41
2021/06/21 09:15:53;;;;;;;5.38;1.80;;;;;;;;;;5029976;28;20376;-42
2021/06/21 09:18:34;;;;;;;4.55;1.60;;;;;;;;;;5025449;28;20017;-41
2021/06/21 09:21:19;;;;;;;3.53;1.83;;;;;;;;;;5029338;28;20033;-43
2021/06/21 09:23:45;;;;;;;3.75;1.42;;;;;;;;;;5031658;28;20029;-41
2021/06/21 09:26:16;;;;;;;4.70;1.67;;;;;;;;;;5028648;28;20330;-40
2021/06/21 09:28:42;;;;;;;2.20;1.45;;;;;;;;;;5029970;28;20128;-41
2021/06/21 09:31:08;;;;;;;3.80;1.40;;;;;;;;;;5020567;28;20060;-44
2021/06/21 09:33:35;;;;;;;3.87;1.83;;;;;;;;;;5005300;28;20060;-41
2021/06/21 09:36:01;;;;;;;2.95;1.40;;;;;;;;;;5029188;28;20036;-44
2021/06/21 09:38:27;;;;;;;2.88;1.50;;;;;;;;;;5029459;28;20112;-42
2021/06/21 09:40:54;;;;;;;4.18;1.48;;;;;;;;;;5034163;28;20173;-43
2021/06/21 09:43:20;;;;;;;;;;;;;;;;;;5035820;28;20434;-41
2021/06/21 09:46:04;;;;;;;3.13;1.50;;;;;;;;;;5033882;28;19971;-45
2021/06/21 09:48:31;;;;;;;2.72;1.52;;;;;;;;;;5030274;28;20033;-42
2021/06/21 09:50:57;;;;;;;4.13;1.45;;;;;;;;;;5028376;28;20037;-42
2021/06/21 09:53:24;;;;;;;2.30;1.47;;;;;;;;;;5030118;28;20029;-42
2021/06/21 09:55:50;;;;;;;2.47;1.50;;;;;;;;;;5030285;28;20033;-42
2021/06/21 09:58:17;;;;;;;3.30;1.33;;;;;;;;;;5011172;28;20172;-41
2021/06/21 10:00:47;;;;;;;2.15;1.30;;;;;;;;;;5022182;28;20030;-41
2021/06/21 10:03:14;;;;;;;2.85;1.55;;;;;;;;;;5029510;28;20040;-42
2021/06/21 10:05:43;;;;;;;2.22;1.42;;;;;;;;;;5030057;28;20071;-45
2021/06/21 10:08:10;;;;;;;3.35;1.60;;;;;;;;;;5003884;28;20174;-39
2021/06/21 10:10:37;;;;;;;2.75;1.60;;;;;;;;;;5027505;28;20040;-42
2021/06/21 10:13:04;;;;;;;3.15;1.80;;;;;;;;;;5025170;28;20029;-42
2021/06/21 10:15:30;;;;;;;3.72;1.92;;;;;;;;;;5028056;28;20042;-43
2021/06/21 10:17:56;;;;;;;2.43;1.37;;;;;;;;;;5029126;28;20026;-42
2021/06/21 10:20:22;;;;;;;3.90;1.40;;;;;;;;;;5030269;28;20078;-40
2021/06/21 10:22:48;;;;;;;3.13;1.27;;;;;;;;;;5030530;28;20025;-40
2021/06/21 10:25:14;;;;;;;2.28;1.45;;;;;;;;;;5016199;28;20093;-41
2021/06/21 10:27:42;;;;;;;2.85;1.42;;;;;;;;;;5022677;28;20052;-45
2021/06/21 10:30:10;;;;;;;3.42;1.42;;;;;;;;;;5010484;28;20025;-40
2021/06/21 10:32:36;;;;;;;2.92;1.30;;;;;;;;;;5035208;28;20025;-42
2021/06/21 10:35:03;;;;;;;3.22;1.38;;;;;;;;;;5022907;28;20040;-42
2021/06/21 10:37:30;;;;;;;2.60;1.27;;;;;;;;;;5004548;28;20040;-40
2021/06/21 10:40:01;;;;;;;3.53;1.63;;;;;;;;;;5022726;28;20071;-43
2021/06/21 10:42:34;;;;;;;2.22;1.23;;;;;;;;;;5016937;28;20061;-42
2021/06/21 10:45:00;;;;;;;2.92;1.20;;;;;;;;;;5018674;28;20080;-42
2021/06/21 10:47:27;;;;;;;1.98;1.23;;;;;;;;;;5009975;28;20442;-43
2021/06/21 10:50:05;;;;;;;2.87;1.30;;;;;;;;;;5028885;28;20472;-42
2021/06/21 10:52:55;;;;;;;2.20;1.35;;;;;;;;;;5023691;28;20080;-41
2021/06/21 10:55:28;;;;;;;3.35;1.60;;;;;;;;;;5020515;28;20103;-44
2021/06/21 10:57:58;;;;;;;2.30;1.58;;;;;;;;;;5010872;28;20034;-41
2021/06/21 11:00:37;;;;;;;1.83;1.23;;;;;;;;;;5000088;28;20622;-42
2021/06/21 11:03:03;;;;;;;3.60;1.25;;;;;;;;;;5024842;28;20034;-43
2021/06/21 11:05:42;;;;;;;2.72;1.35;;;;;;;;;;5017276;28;20522;-42
2021/06/21 11:08:18;;;;;;;2.85;1.20;;;;;;;;;;5018624;28;20051;-41
2021/06/21 11:10:45;;;;;;;3.67;1.15;;;;;;;;;;5022263;28;20036;-42
2021/06/21 11:13:30;;;;;;;2.80;1.20;;;;;;;;;;5019600;28;20582;-40
2021/06/21 11:16:21;;;;;;;3.08;1.38;;;;;;;;;;5026374;28;20749;-41
2021/06/21 11:19:11;;;;;;;3.10;1.30;;;;;;;;;;5014126;28;20112;-40
2021/06/21 11:21:46;;;;;;;1.98;1.10;;;;;;;;;;5001518;28;20083;-43
2021/06/21 11:24:32;;;;;;;2.83;1.17;;;;;;;;;;5007030;28;20125;-43
2021/06/21 11:26:59;;;;;;;2.15;1.17;;;;;;;;;;5007497;28;20034;-43
2021/06/21 11:29:38;;;;;;;2.05;1.25;;;;;;;;;;5009644;28;20083;-42
2021/06/21 11:32:06;;;;;;;2.42;1.60;;;;;;;;;;5018478;28;20101;-43
2021/06/21 11:34:44;;;;;;;2.45;1.25;;;;;;;;;;5014258;28;20021;-43
2021/06/21 11:37:29;;;;;;;2.53;1.00;;;;;;;;;;5029045;28;20021;-43
2021/06/21 11:40:19;;;;;;;2.65;1.20;;;;;;;;;;5042065;28;20073;-43
2021/06/21 11:43:00;;;;;;;3.08;1.60;;;;;;;;;;5037646;28;20025;-41
2021/06/21 11:45:45;;;;;;;1.80;1.10;;;;;;;;;;5029829;28;20050;-41
2021/06/21 11:48:11;;;;;;;2.30;1.30;;;;;;;;;;5026346;28;20541;-42
2021/06/21 11:50:38;;;;;;;4.20;1.55;;;;;;;;;;5033139;28;20409;-41
2021/06/21 11:53:08;;;;;;;2.67;1.10;;;;;;;;;;5028826;28;20109;-40
2021/06/21 11:55:38;;;;;;;1.67;1.08;;;;;;;;;;5029253;28;20109;-40
2021/06/21 11:58:04;;;;;;;2.47;1.40;;;;;;;;;;5013312;28;20034;-40
2021/06/21 12:00:33;;;;;;;2.05;1.23;;;;;;;;;;5008753;28;20146;-41
2021/06/21 12:03:06;;;;;;;2.15;1.17;;;;;;;;;;5022299;28;20539;-40
2021/06/21 12:05:33;;;;;;;2.45;1.33;;;;;;;;;;5008932;28;20021;-40
2021/06/21 12:07:59;;;;;;;2.03;1.10;;;;;;;;;;5018233;28;20661;-41
2021/06/21 12:10:25;;;;;;;2.65;1.30;;;;;;;;;;5000491;28;20143;-40
2021/06/21 12:12:58;;;;;;;2.40;1.30;;;;;;;;;;5008659;28;20032;-40
2021/06/21 12:15:33;;;;;;;2.22;1.23;;;;;;;;;;5022368;28;20248;-41
2021/06/21 12:18:02;;;;;;;2.25;1.52;;;;;;;;;;4999572;28;20028;-42
2021/06/21 12:20:28;;;;;;;4.05;1.15;;;;;;;;;;5028062;28;20057;-41
2021/06/21 12:22:57;;;;;;;4.47;1.13;;;;;;;;;;5009720;28;20490;-41
2021/06/21 12:25:30;;;;;;;2.10;1.17;;;;;;;;;;5010162;28;20092;-40
2021/06/21 12:28:09;;;;;;;2.17;1.50;;;;;;;;;;5018627;28;20073;-41
2021/06/21 12:30:42;;;;;;;1.65;1.10;;;;;;;;;;5016380;28;20025;-41
2021/06/21 12:33:31;;;;;;;2.75;1.35;;;;;;;;;;4999165;28;20084;-40
2021/06/21 12:36:03;;;;;;;2.20;1.30;;;;;;;;;;5024117;28;20021;-41
2021/06/21 12:38:29;;;;;;;1.83;1.00;;;;;;;;;;5045759;28;20017;-41
2021/06/21 12:40:59;;;;;;;2.28;1.13;;;;;;;;;;5017943;28;20025;-41
2021/06/21 12:43:25;;;;;;;1.70;1.13;;;;;;;;;;5012624;28;20030;-40
2021/06/21 12:45:51;;;;;;;2.00;1.10;;;;;;;;;;5019467;28;20094;-40
2021/06/21 12:48:17;;;;;;;3.33;1.40;;;;;;;;;;5032336;28;20472;-40
2021/06/21 12:50:43;;;;;;;2.70;1.30;;;;;;;;;;5010870;28;20018;-40
2021/06/21 12:53:10;;;;;;;5.03;1.50;;;;;;;;;;5007306;28;20459;-41
2021/06/21 12:55:36;;;;;;;2.83;1.27;;;;;;;;;;5016064;28;20037;-42
2021/06/21 12:58:05;;;;;;;1.60;1.00;;;;;;;;;;5032287;28;20346;-42
2021/06/21 13:00:43;;;;;;;1.65;1.17;;;;;;;;;;5029251;28;20120;-41
2021/06/21 13:03:23;;;;;;;2.63;1.25;;;;;;;;;;5013307;28;20022;-41
2021/06/21 13:05:51;;;;;;;2.72;1.20;;;;;;;;;;5031317;28;20021;-40
2021/06/21 13:08:30;;;;;;;3.03;1.10;;;;;;;;;;5032014;28;20033;-38
2021/06/21 13:11:04;;;;;;;1.55;1.10;;;;;;;;;;5014972;28;20030;-39
2021/06/21 13:13:35;;;;;;;2.60;1.30;;;;;;;;;;5023870;28;20174;-41
2021/06/21 13:16:07;;;;;;;4.13;1.45;;;;;;;;;;5026169;28;20123;-41
2021/06/21 13:19:05;;;;;;;2.15;1.15;;;;;;;;;;5028943;28;20513;-41
2021/06/21 13:21:52;;;;;;;2.17;1.30;;;;;;;;;;5029838;28;20064;-40
2021/06/21 13:24:31;;;;;;;1.90;1.17;;;;;;;;;;5013564;28;20456;-40
2021/06/21 13:26:57;;;;;;;2.17;1.23;;;;;;;;;;5029357;28;20050;-40
2021/06/21 13:29:28;;;;;;;2.97;1.37;;;;;;;;;;5013561;28;20013;-39
2021/06/21 13:31:57;;;;;;;2.97;1.40;;;;;;;;;;5031856;28;20384;-39
2021/06/21 13:34:42;;;;;;;2.25;1.10;;;;;;;;;;5021917;28;20346;-41
2021/06/21 13:37:09;;;;;;;1.85;1.30;;;;;;;;;;5031583;28;20513;-42
2021/06/21 13:39:35;;;;;;;1.95;1.20;;;;;;;;;;5013045;28;20088;-42
2021/06/21 13:42:03;;;;;;;1.95;1.25;;;;;;;;;;5034121;28;20096;-44
2021/06/21 13:44:32;;;;;;;2.13;1.08;;;;;;;;;;5019396;28;20053;-39
2021/06/21 13:46:58;;;;;;;1.85;1.20;;;;;;;;;;5022005;28;20712;-39
2021/06/21 13:49:28;;;;;;;2.88;1.67;;;;;;;;;;5026965;28;20017;-40
2021/06/21 13:51:54;;;;;;;2.13;1.35;;;;;;;;;;5031103;28;20069;-39
2021/06/21 13:54:24;;;;;;;2.05;1.27;;;;;;;;;;5031473;28;20895;-40
2021/06/21 13:56:50;;;;;;;2.08;1.30;;;;;;;;;;5026642;28;20080;-41
2021/06/21 13:59:17;;;;;;;2.90;1.43;;;;;;;;;;5031597;28;20490;-40
2021/06/21 14:01:53;;;;;;;2.63;1.27;;;;;;;;;;5013652;28;20033;-40
2021/06/21 14:04:21;;;;;;;3.10;1.40;;;;;;;;;;5019909;28;20044;-39
2021/06/21 14:06:48;;;;;;;2.92;1.45;;;;;;;;;;5026200;28;20540;-41
2021/06/21 14:09:17;;;;;;;2.70;1.23;;;;;;;;;;5030872;28;20021;-42
2021/06/21 14:11:45;;;;;;;2.75;1.42;;;;;;;;;;5012948;28;20059;-43
2021/06/21 14:14:11;;;;;;;4.03;1.50;;;;;;;;;;5023298;28;20105;-43
2021/06/21 14:16:37;;;;;;;2.93;1.53;;;;;;;;;;5016800;28;20104;-43
2021/06/21 14:19:06;;;;;;;2.20;1.60;;;;;;;;;;5022459;28;20397;-43
2021/06/21 14:21:34;;;;;;;3.30;1.60;;;;;;;;;;5022663;28;20029;-42
2021/06/21 14:24:00;;;;;;;2.90;1.42;;;;;;;;;;5022841;28;20084;-44
2021/06/21 14:26:26;;;;;;;3.83;1.65;;;;;;;;;;5030847;28;20038;-43
2021/06/21 14:28:52;;;;;;;2.70;1.40;;;;;;;;;;5028956;28;20044;-44
2021/06/21 14:31:19;;;;;;;3.58;1.40;;;;;;;;;;5006607;28;20021;-43
2021/06/21 14:33:45;;;;;;;3.53;1.60;;;;;;;;;;5028286;28;20029;-42
2021/06/21 14:36:11;;;;;;;2.97;1.20;;;;;;;;;;5028754;28;20580;-43
2021/06/21 14:38:38;;;;;;;3.72;1.27;;;;;;;;;;5028722;28;20025;-42
2021/06/21 14:41:04;;;;;;;;;;;;;;;;;;5033838;28;20029;-42
2021/06/21 14:43:30;;;;;;;2.10;1.35;;;;;;;;;;5029788;28;20027;-42
2021/06/21 14:45:57;;;;;;;2.00;1.10;;;;;;;;;;5025906;28;20060;-42
2021/06/21 14:48:23;;;;;;;3.17;1.30;;;;;;;;;;5009980;28;20075;-43
2021/06/21 14:50:50;;;;;;;2.13;1.03;;;;;;;;;;5029454;28;20449;-42
2021/06/21 14:53:16;;;;;;;2.10;1.13;;;;;;;;;;5026771;28;20029;-43
2021/06/21 14:55:42;;;;;;;2.95;1.25;;;;;;;;;;5029774;28;20033;-42
2021/06/21 14:58:09;;;;;;;2.35;1.20;;;;;;;;;;5030034;28;20366;-41
2021/06/21 15:00:38;;;;;;;2.75;1.10;;;;;;;;;;5026710;28;20052;-43
2021/06/21 15:03:08;;;;;;;3.60;1.02;;;;;;;;;;5009703;28;20028;-41
2021/06/21 15:05:35;;;;;;;2.65;1.20;;;;;;;;;;5018490;28;20036;-42
2021/06/21 15:08:01;;;;;;;4.53;1.20;;;;;;;;;;5019104;28;20037;-41
2021/06/21 15:10:29;;;;;;;5.80;1.33;;;;;;;;;;5012237;28;21262;-40
2021/06/21 15:12:56;;;;;;;3.53;1.48;;;;;;;;;;5011497;28;20014;-40
2021/06/21 15:15:25;;;;;;;2.53;1.10;;;;;;;;;;5029392;28;20017;-40
2021/06/21 15:17:51;;;;;;;2.30;1.00;;;;;;;;;;5023774;28;20033;-41
2021/06/21 15:20:19;;;;;;;2.20;1.17;;;;;;;;;;5025698;28;20025;-41
2021/06/21 15:22:46;;;;;;;2.28;1.00;;;;;;;;;;5029032;28;20017;-40
2021/06/21 15:25:12;;;;;;;1.90;1.10;;;;;;;;;;5029192;28;20048;-43
2021/06/21 15:27:38;;;;;;;2.60;1.00;;;;;;;;;;5029888;28;20033;-43
2021/06/21 15:30:08;;;;;;;2.87;1.10;;;;;;;;;;5028615;28;20037;-44
2021/06/21 15:32:35;;;;;;;2.15;1.20;;;;;;;;;;5028594;28;20034;-41
2021/06/21 15:35:01;;;;;;;2.00;0.93;;;;;;;;;;5028079;28;20017;-40
2021/06/21 15:37:27;;;;;;;2.03;1.38;;;;;;;;;;4994095;28;20117;-43
2021/06/21 15:39:53;;;;;;;3.83;1.92;;;;;;;;;;5010247;28;20466;-41
2021/06/21 15:42:22;;;;;;;3.70;1.87;;;;;;;;;;5028712;28;20014;-40
2021/06/21 15:44:48;;;;;;;5.88;2.60;;;;;;;;;;5027967;28;20069;-46
2021/06/21 15:47:17;;;;;;;6.60;3.30;;;;;;;;;;5029278;28;20108;-42
2021/06/21 15:49:43;;;;;;;8.43;5.10;;;;;;;;;;5026840;28;20029;-42
2021/06/21 15:52:09;;;;;;;9.30;6.00;;;;;;;;;;5028329;28;20532;-40
2021/06/21 15:54:36;;;;;;;14.50;7.85;;;;;;;;;;5028367;28;20137;-41
2021/06/21 15:57:02;;;;;;;15.70;9.40;;;;;;;;;;5028787;28;20343;-42
2021/06/21 15:59:28;;;;;;;22.30;11.07;;;;;;;;;;5028765;28;20037;-42
2021/06/21 16:01:57;;;;;;;22.15;12.10;;;;;;;;;;5027543;28;20034;-42
2021/06/21 16:04:23;;;;;;;26.38;13.35;;;;;;;;;;5007788;28;20120;-45
2021/06/21 16:06:50;;;;;;;23.65;14.15;;;;;;;;;;5027239;28;20026;-46
2021/06/21 16:09:16;;;;;;;;;;;;;;;;;;5011949;28;20024;-43
2021/06/21 16:11:45;;;;;;;24.55;14.18;;;;;;;;;;5029674;28;20106;-43
2021/06/21 16:14:11;;;;;;;24.40;15.13;;;;;;;;;;5010930;28;20045;-45
2021/06/21 16:16:38;;;;;;;28.05;16.45;;;;;;;;;;5025068;28;20018;-43
2021/06/21 16:19:07;;;;;;;28.87;16.13;;;;;;;;;;5026673;28;20100;-44
2021/06/21 16:21:34;;;;;;;26.73;16.05;;;;;;;;;;5026747;28;20026;-43
2021/06/21 16:24:00;;;;;;;26.42;15.13;;;;;;;;;;5026432;28;20450;-47
2021/06/21 16:26:27;;;;;;;20.95;12.38;;;;;;;;;;5009910;28;20087;-45
2021/06/21 16:28:53;;;;;;;25.77;13.63;;;;;;;;;;5007725;28;20038;-45
2021/06/21 16:31:19;;;;;;;21.60;13.70;;;;;;;;;;5026535;28;20371;-44
2021/06/21 16:33:45;;;;;;;24.15;13.98;;;;;;;;;;5018253;28;20265;-46
2021/06/21 16:36:11;;;;;;;21.10;12.93;;;;;;;;;;5024397;28;20074;-44
2021/06/21 16:38:38;;;;;;;24.40;13.93;;;;;;;;;;5011193;28;20030;-45
2021/06/21 16:41:04;;;;;;;;;;;;;;;;;;5029118;28;20050;-45
2021/06/21 16:43:30;;;;;;;21.58;12.43;;;;;;;;;;5029221;28;20317;-44
2021/06/21 16:45:57;;;;;;;21.45;11.90;;;;;;;;;;5031401;28;20048;-44
2021/06/21 16:48:23;;;;;;;16.35;9.10;;;;;;;;;;5013017;28;20402;-44
2021/06/21 16:50:52;;;;;;;14.60;9.57;;;;;;;;;;5026215;28;20025;-46
2021/06/21 16:53:19;;;;;;;11.27;7.15;;;;;;;;;;5014881;28;20455;-43
2021/06/21 16:55:45;;;;;;;12.10;6.90;;;;;;;;;;5014058;28;20018;-44
2021/06/21 16:58:13;;;;;;;12.38;7.63;;;;;;;;;;4992406;28;20038;-44
2021/06/21 17:00:39;;;;;;;10.38;6.63;;;;;;;;;;5007814;28;20124;-46
2021/06/21 17:03:05;;;;;;;10.68;6.40;;;;;;;;;;5011331;28;20053;-44
2021/06/21 17:05:36;;;;;;;10.55;6.50;;;;;;;;;;5021544;28;20030;-48
2021/06/21 17:08:02;;;;;;;9.68;5.68;;;;;;;;;;5022597;28;20064;-44
2021/06/21 17:10:28;;;;;;;12.40;6.07;;;;;;;;;;5000933;28;20026;-44
2021/06/21 17:12:58;;;;;;;8.07;5.05;;;;;;;;;;5005839;28;20034;-44
2021/06/21 17:15:24;;;;;;;9.57;5.45;;;;;;;;;;5008975;28;20443;-44
2021/06/21 17:17:51;;;;;;;9.13;5.55;;;;;;;;;;4992875;28;20061;-45
2021/06/21 17:20:20;;;;;;;9.27;4.93;;;;;;;;;;5009509;28;20133;-44
2021/06/21 17:22:47;;;;;;;9.48;5.45;;;;;;;;;;5028190;28;20470;-44
2021/06/21 17:25:13;;;;;;;7.88;4.95;;;;;;;;;;5030502;28;20478;-44
2021/06/21 17:27:42;;;;;;;8.00;3.83;;;;;;;;;;4996262;28;20030;-44
2021/06/21 17:30:09;;;;;;;5.95;3.40;;;;;;;;;;5010348;28;20028;-45
2021/06/21 17:32:35;;;;;;;6.80;3.70;;;;;;;;;;5023823;28;20029;-43
2021/06/21 17:35:01;;;;;;;4.60;3.15;;;;;;;;;;5025817;28;20482;-44
2021/06/21 17:37:27;;;;;;;5.65;3.33;;;;;;;;;;4994607;28;20042;-43
2021/06/21 17:39:54;;;;;;;6.10;3.40;;;;;;;;;;5011821;28;20022;-44
2021/06/21 17:42:20;;;;;;;6.50;3.00;;;;;;;;;;5032012;28;20028;-42
2021/06/21 17:44:47;;;;;;;5.07;2.80;;;;;;;;;;5023387;28;20049;-40
2021/06/21 17:47:14;;;;;;;4.60;2.50;;;;;;;;;;5010915;28;20049;-45
2021/06/21 17:49:40;;;;;;;5.72;2.80;;;;;;;;;;5028322;28;20025;-44
2021/06/21 17:52:06;;;;;;;4.67;2.80;;;;;;;;;;5027485;28;20026;-44
2021/06/21 17:54:32;;;;;;;4.85;2.30;;;;;;;;;;5013075;28;20260;-48
2021/06/21 17:56:59;;;;;;;3.55;1.90;;;;;;;;;;5012484;28;20029;-45
2021/06/21 17:59:25;;;;;;;4.60;2.00;;;;;;;;;;5012352;28;20497;-46
2021/06/21 18:01:51;;;;;;;3.35;2.05;;;;;;;;;;5029530;28;20043;-43
2021/06/21 18:04:17;;;;;;;3.80;1.90;;;;;;;;;;5027974;28;20029;-46
2021/06/21 18:06:45;;;;;;;3.20;1.90;;;;;;;;;;5001175;28;20026;-44
2021/06/21 18:09:11;;;;;;;4.03;2.00;;;;;;;;;;5011026;28;20095;-45
2021/06/21 18:11:40;;;;;;;5.45;2.13;;;;;;;;;;5024843;28;20350;-44
2021/06/21 18:14:09;;;;;;;5.28;1.77;;;;;;;;;;4998969;28;20106;-43
2021/06/21 18:16:40;;;;;;;3.28;1.88;;;;;;;;;;5000477;28;20033;-45
2021/06/21 18:19:10;;;;;;;3.78;1.70;;;;;;;;;;5031054;28;20029;-43
2021/06/21 18:21:38;;;;;;;4.18;1.90;;;;;;;;;;5012418;28;20037;-44
2021/06/21 18:24:07;;;;;;;2.13;1.45;;;;;;;;;;5007252;28;20066;-44
2021/06/21 18:26:33;;;;;;;3.15;1.65;;;;;;;;;;5023466;28;20029;-44
2021/06/21 18:29:01;;;;;;;2.30;1.40;;;;;;;;;;5030877;28;20041;-44
2021/06/21 18:31:27;;;;;;;2.17;1.50;;;;;;;;;;5027105;28;20093;-42
2021/06/21 18:33:54;;;;;;;2.30;1.40;;;;;;;;;;5031107;28;20040;-42
2021/06/21 18:36:20;;;;;;;3.85;1.38;;;;;;;;;;5020730;28;20037;-42
2021/06/21 18:38:48;;;;;;;2.58;1.10;;;;;;;;;;5029294;28;20106;-42
2021/06/21 18:41:15;;;;;;;3.97;1.40;;;;;;;;;;5016969;28;20030;-43
2021/06/21 18:43:43;;;;;;;2.35;1.17;;;;;;;;;;5029364;28;20033;-43
2021/06/21 18:46:09;;;;;;;3.25;1.40;;;;;;;;;;5019441;28;20585;-43
2021/06/21 18:48:35;;;;;;;1.85;1.23;;;;;;;;;;4996771;28;20522;-42
2021/06/21 18:51:01;;;;;;;3.58;1.90;;;;;;;;;;5029918;28;20386;-44
2021/06/21 18:53:27;;;;;;;2.60;1.40;;;;;;;;;;5029970;28;20037;-42
2021/06/21 18:55:53;;;;;;;3.30;1.88;;;;;;;;;;5028451;28;20029;-43
2021/06/21 18:58:20;;;;;;;2.65;1.40;;;;;;;;;;5025987;28;20185;-41
2021/06/21 19:00:51;;;;;;;3.88;1.80;;;;;;;;;;5030216;28;20060;-46
2021/06/21 19:03:20;;;;;;;2.85;1.60;;;;;;;;;;5024468;28;20030;-44
2021/06/21 19:05:51;;;;;;;2.30;1.50;;;;;;;;;;5028132;28;20438;-44
2021/06/21 19:08:20;;;;;;;2.47;1.20;;;;;;;;;;5025362;28;20096;-45
2021/06/21 19:10:49;;;;;;;2.13;1.10;;;;;;;;;;5028374;28;20052;-44
2021/06/21 19:13:15;;;;;;;3.45;1.67;;;;;;;;;;5022918;28;20042;-44
2021/06/21 19:15:41;;;;;;;2.13;1.43;;;;;;;;;;5023172;28;20480;-43
2021/06/21 19:18:12;;;;;;;2.53;1.80;;;;;;;;;;5028413;28;20045;-43
2021/06/21 19:20:39;;;;;;;2.88;1.35;;;;;;;;;;5022161;28;20053;-46
2021/06/21 19:23:08;;;;;;;;;;;;;;;;;;5022869;28;20022;-46
2021/06/21 19:25:36;;;;;;;2.25;1.50;;;;;;;;;;5029855;28;20387;-45
2021/06/21 19:28:06;;;;;;;2.83;1.55;;;;;;;;;;5030009;28;20536;-45
2021/06/21 19:30:32;;;;;;;3.55;1.63;;;;;;;;;;5029463;28;20366;-47
2021/06/21 19:33:03;;;;;;;2.20;1.30;;;;;;;;;;5030171;28;20036;-45
2021/06/21 19:35:32;;;;;;;2.38;1.20;;;;;;;;;;5022465;28;20435;-45
2021/06/21 19:38:01;;;;;;;1.90;1.10;;;;;;;;;;5018693;28;20570;-46
2021/06/21 19:40:27;;;;;;;6.95;1.20;;;;;;;;;;5024622;28;20022;-45
2021/06/21 19:42:53;;;;;;;1.83;1.10;;;;;;;;;;5013145;28;20038;-44
2021/06/21 19:45:20;;;;;;;2.10;1.10;;;;;;;;;;5026634;28;20328;-43
2021/06/21 19:47:46;;;;;;;2.13;1.10;;;;;;;;;;5017538;28;20119;-43
2021/06/21 19:50:18;;;;;;;2.38;1.13;;;;;;;;;;5021218;28;20030;-44
2021/06/21 19:52:44;;;;;;;2.80;1.15;;;;;;;;;;5029741;28;20071;-44
2021/06/21 19:55:16;;;;;;;1.67;1.10;;;;;;;;;;5014629;28;20413;-43
2021/06/21 19:57:44;;;;;;;1.40;1.00;;;;;;;;;;5022848;28;20129;-44
2021/06/21 20:00:13;;;;;;;2.80;1.20;;;;;;;;;;5010156;28;20018;-43
2021/06/21 20:02:39;;;;;;;2.15;1.10;;;;;;;;;;5022432;28;20036;-43
2021/06/21 20:05:06;;;;;;;2.80;1.10;;;;;;;;;;5023010;28;20105;-44
2021/06/21 20:07:32;;;;;;;2.80;1.10;;;;;;;;;;5018087;28;20136;-42
2021/06/21 20:09:58;;;;;;;2.92;1.30;;;;;;;;;;5000911;28;20034;-43
2021/06/21 20:12:24;;;;;;;3.70;1.40;;;;;;;;;;5012992;28;20025;-44
2021/06/21 20:14:52;;;;;;;2.00;1.30;;;;;;;;;;5025952;28;20032;-44
2021/06/21 20:17:18;;;;;;;3.75;1.92;;;;;;;;;;5021971;28;20113;-44
2021/06/21 20:19:44;;;;;;;2.78;1.60;;;;;;;;;;5026507;28;20021;-45
2021/06/21 20:22:10;;;;;;;3.28;1.92;;;;;;;;;;5029365;28;20048;-41
2021/06/21 20:24:37;;;;;;;5.75;2.65;;;;;;;;;;5014391;28;20029;-41
2021/06/21 20:27:03;;;;;;;3.35;1.73;;;;;;;;;;5010653;28;20029;-43
2021/06/21 20:29:29;;;;;;;5.90;1.80;;;;;;;;;;5024751;28;20385;-44
2021/06/21 20:31:55;;;;;;;4.53;1.92;;;;;;;;;;5028612;28;20125;-43
2021/06/21 20:34:29;;;;;;;4.95;1.60;;;;;;;;;;5027996;28;20026;-43
2021/06/21 20:36:58;;;;;;;3.85;1.98;;;;;;;;;;5015658;28;20026;-44
2021/06/21 20:39:24;;;;;;;3.35;1.60;;;;;;;;;;5018077;28;20513;-44
2021/06/21 20:41:50;;;;;;;4.13;1.50;;;;;;;;;;5028351;28;20036;-44
2021/06/21 20:44:16;;;;;;;3.50;1.65;;;;;;;;;;5009632;28;20058;-44
2021/06/21 20:46:43;;;;;;;5.23;1.57;;;;;;;;;;5018715;28;20026;-43
2021/06/21 20:49:09;;;;;;;3.97;1.40;;;;;;;;;;5031845;28;20332;-44
2021/06/21 20:51:36;;;;;;;2.20;1.60;;;;;;;;;;5033995;28;20279;-43
2021/06/21 20:54:02;;;;;;;;;;;;;;;;;;5029604;28;20485;-43
